Decoded Metar for LPAZ (SANTA MARIA (ISLAND) in PORTUGAL) (IATA:SMA) | Meteo·Mobile Aviation Weather
aviador You're here:

LPAZ Decoded Metar

SANTA MARIA (ISLAND) in PORTUGAL
Report Time2019-07-21 18:00:00
UTC Time2019-07-21 18:10:33
Flight Rules vfr VFR
Wind200° at 12 kt
W.Decomp.*RWY 18: 10.4 kt HW 6.0 kt RCW
Visibility9999 m
Phenomena:N/A
Clouds:Few 020 Hf
Expected CloudBase > 2,400 ft AGL from Temp-Dew spread
CeilingNone
Temp26°C (ISA +12)
Dew Point20°C (70% RH)
AAT25.4°C
QNH1021 hPa
Density Alt1,716 ft
Elevation328 ft
Report Wrong Elevation
Raw Report
METAR LPAZ 211800Z 20012KT 9999 FEW020 26/20 Q1021=

Extra information for LPAZ:More info

Metar Taf Metar & Taf Last 4 Metars F.Rules Stats Wind Profile Meteogram Temp Stats Airport Information Weather charts Add Link Nearby VenuesMetar ALERT Operation Metar Decoded Social comments